createdAt,value
2018-02-15T00:01:59.893Z,34.50
2018-02-15T00:04:35.570Z,34.57
2018-02-15T00:07:06.066Z,29.03
2018-02-15T00:09:37.607Z,43.03
2018-02-15T00:12:08.838Z,25.30
2018-02-15T00:14:40.273Z,37.67
2018-02-15T00:17:10.739Z,35.20
2018-02-15T00:19:41.977Z,36.03
2018-02-15T00:22:13.951Z,35.73
2018-02-15T00:24:44.333Z,38.33
2018-02-15T00:27:15.241Z,33.30
2018-02-15T00:29:45.729Z,32.77
2018-02-15T00:32:16.996Z,38.00
2018-02-15T00:34:47.503Z,30.63
2018-02-15T00:37:19.227Z,42.77
2018-02-15T00:39:49.946Z,38.77
2018-02-15T00:42:20.426Z,35.10
2018-02-15T00:44:52.109Z,30.40
2018-02-15T00:47:22.625Z,30.60
2018-02-15T00:49:53.074Z,42.00
2018-02-15T00:52:23.569Z,34.20
2018-02-15T00:54:54.770Z,23.53
2018-02-15T00:57:30.454Z,37.00
2018-02-15T01:00:01.700Z,27.80
2018-02-15T01:02:32.889Z,29.57
2018-02-15T01:05:03.271Z,33.37
2018-02-15T01:07:34.426Z,26.17
2018-02-15T01:10:06.633Z,28.13
2018-02-15T01:12:37.101Z,34.37
2018-02-15T01:15:08.585Z,25.93
2018-02-15T01:17:39.059Z,30.93
2018-02-15T01:20:10.386Z,22.23
2018-02-15T01:22:40.904Z,32.97
2018-02-15T01:25:11.425Z,20.63
2018-02-15T01:27:42.298Z,31.73
2018-02-15T01:30:12.713Z,35.87
2018-02-15T01:32:43.326Z,27.47
2018-02-15T01:35:13.790Z,38.33
2018-02-15T01:37:44.236Z,25.43
2018-02-15T01:40:15.696Z,28.97
2018-02-15T01:42:46.926Z,26.73
2018-02-15T01:45:19.666Z,34.40
2018-02-15T01:47:50.154Z,29.57
2018-02-15T01:50:21.362Z,35.03
2018-02-15T01:52:51.901Z,27.50
2018-02-15T01:55:22.334Z,28.93
2018-02-15T01:57:53.385Z,34.33
2018-02-15T02:00:24.645Z,29.13
2018-02-15T02:02:55.826Z,54.23
2018-02-15T02:05:26.321Z,41.70
2018-02-15T02:07:56.779Z,28.60
2018-02-15T02:10:27.262Z,38.60
2018-02-15T02:12:58.468Z,41.60
2018-02-15T02:15:29.286Z,38.00
2018-02-15T02:17:59.744Z,41.13
2018-02-15T02:20:30.193Z,35.17
2018-02-15T02:23:01.390Z,32.83
2018-02-15T02:25:31.872Z,30.33
2018-02-15T02:28:03.623Z,41.67
2018-02-15T02:30:34.767Z,31.80
2018-02-15T02:33:06.307Z,38.40
2018-02-15T02:35:36.806Z,32.87
2018-02-15T02:38:08.309Z,37.60
2018-02-15T02:40:38.708Z,31.93
2018-02-15T02:43:09.097Z,30.10
2018-02-15T02:45:39.501Z,50.57
2018-02-15T02:48:09.933Z,34.40
2018-02-15T02:50:40.438Z,30.67
2018-02-15T02:53:11.678Z,30.23
2018-02-15T02:55:42.851Z,32.90
2018-02-15T02:58:13.255Z,24.27
2018-02-15T03:00:44.519Z,30.90
2018-02-15T03:03:15.025Z,35.53
2018-02-15T03:05:46.188Z,26.37
2018-02-15T03:08:16.658Z,33.17
2018-02-15T03:10:47.143Z,28.90
2018-02-15T03:13:17.646Z,26.40
2018-02-15T03:15:49.195Z,27.83
2018-02-15T03:18:20.376Z,26.13
2018-02-15T03:20:50.880Z,29.73
2018-02-15T03:23:22.117Z,25.53
2018-02-15T03:25:53.340Z,24.37
2018-02-15T03:28:25.510Z,23.10
2018-02-15T03:30:56.012Z,27.97
2018-02-15T03:33:26.933Z,28.83
2018-02-15T03:35:57.325Z,29.53
2018-02-15T03:38:28.577Z,25.07
2018-02-15T03:40:59.738Z,28.70
2018-02-15T03:43:30.210Z,25.77
2018-02-15T03:46:01.186Z,29.93
2018-02-15T03:48:32.350Z,29.17
2018-02-15T03:51:03.309Z,24.63
2018-02-15T03:53:33.754Z,24.87
2018-02-15T03:56:04.250Z,25.50
2018-02-15T03:58:34.717Z,28.30
2018-02-15T04:01:05.086Z,43.10
2018-02-15T04:03:36.049Z,34.30
2018-02-15T04:06:06.459Z,32.40
2018-02-15T04:08:37.732Z,26.20
2018-02-15T04:11:08.232Z,36.00
2018-02-15T04:13:38.663Z,36.17
2018-02-15T04:16:09.158Z,29.43
2018-02-15T04:18:39.749Z,31.90
2018-02-15T04:21:10.173Z,28.80
2018-02-15T04:23:40.649Z,23.10
2018-02-15T04:26:11.484Z,30.77
2018-02-15T04:28:42.746Z,26.03
2018-02-15T04:31:13.748Z,25.37
2018-02-15T04:33:44.685Z,24.80
2018-02-15T04:36:15.134Z,31.57
2018-02-15T04:38:46.656Z,26.67
2018-02-15T04:41:17.089Z,38.23
2018-02-15T04:43:47.494Z,38.17
2018-02-15T04:46:17.910Z,25.70
2018-02-15T04:48:49.027Z,21.87
2018-02-15T04:51:19.846Z,26.80
2018-02-15T04:53:51.119Z,20.37
2018-02-15T04:56:21.622Z,26.80
2018-02-15T04:58:52.841Z,20.83
2018-02-15T05:01:23.318Z,23.73
2018-02-15T05:03:53.691Z,27.97
2018-02-15T05:06:24.153Z,34.07
2018-02-15T05:08:55.711Z,23.57
2018-02-15T05:11:26.186Z,28.47
2018-02-15T05:13:56.654Z,20.27
2018-02-15T05:16:27.898Z,27.17
2018-02-15T05:18:59.150Z,23.20
2018-02-15T05:21:30.670Z,15.13
2018-02-15T05:24:01.150Z,20.17
2018-02-15T05:26:31.694Z,17.23
2018-02-15T05:29:02.187Z,21.67
2018-02-15T05:31:33.442Z,15.57
2018-02-15T05:34:03.857Z,11.33
2018-02-15T05:36:35.131Z,10.50
2018-02-15T05:39:06.750Z,10.83
2018-02-15T05:41:38.325Z,9.17
2018-02-15T05:44:08.821Z,8.40
2018-02-15T05:46:39.290Z,13.73
2018-02-15T05:49:09.798Z,15.80
2018-02-15T05:51:41.462Z,10.33
2018-02-15T05:54:11.902Z,12.27
2018-02-15T05:56:42.581Z,12.47
2018-02-15T05:59:12.942Z,9.97
2018-02-15T06:01:43.413Z,9.23
2018-02-15T06:04:13.883Z,9.63
2018-02-15T06:06:45.107Z,9.13
2018-02-15T06:09:15.633Z,11.10
2018-02-15T06:11:46.351Z,11.53
2018-02-15T06:14:16.778Z,6.80
2018-02-15T06:16:47.350Z,8.93
2018-02-15T06:19:18.484Z,6.60
2018-02-15T06:21:49.938Z,7.53
2018-02-15T06:24:21.165Z,5.63
2018-02-15T06:26:52.038Z,10.73
2018-02-15T06:29:22.499Z,7.53
2018-02-15T06:31:52.960Z,5.00
2018-02-15T06:34:23.417Z,12.47
2018-02-15T06:36:53.880Z,8.17
2018-02-15T06:39:24.854Z,9.33
2018-02-15T06:41:55.250Z,15.43
2018-02-15T06:44:25.688Z,6.10
2018-02-15T06:46:56.168Z,13.03
2018-02-15T06:49:28.528Z,6.20
2018-02-15T06:51:59.751Z,6.30
2018-02-15T06:54:30.155Z,7.50
2018-02-15T06:57:00.972Z,13.17
2018-02-15T06:59:31.377Z,13.57
2018-02-15T07:02:01.998Z,7.93
2018-02-15T07:04:32.501Z,11.83
2018-02-15T07:07:02.922Z,6.90
2018-02-15T07:09:33.649Z,7.63
2018-02-15T07:12:04.149Z,11.90
2018-02-15T07:14:35.110Z,11.67
2018-02-15T07:17:05.601Z,7.60
2018-02-15T07:19:36.032Z,6.37
2018-02-15T07:22:06.432Z,14.20
2018-02-15T07:24:37.721Z,9.20
2018-02-15T07:27:08.342Z,12.37
2018-02-15T07:29:38.837Z,8.57
2018-02-15T07:32:10.120Z,8.17
2018-02-15T07:34:40.535Z,14.93
2018-02-15T07:37:11.618Z,9.13
2018-02-15T07:39:42.106Z,10.53
2018-02-15T07:42:12.609Z,17.40
2018-02-15T07:44:44.015Z,7.37
2018-02-15T07:47:14.561Z,17.90
2018-02-15T07:49:45.219Z,12.07
2018-02-15T07:52:16.606Z,23.97
2018-02-15T07:54:47.321Z,11.07
2018-02-15T07:57:18.305Z,9.47
2018-02-15T07:59:48.807Z,7.90
2018-02-15T08:02:19.674Z,8.67
2018-02-15T08:04:50.117Z,8.13
2018-02-15T08:07:21.317Z,12.43
2018-02-15T08:09:51.778Z,9.73
2018-02-15T08:12:22.295Z,10.17
2018-02-15T08:14:52.896Z,11.97
2018-02-15T08:17:23.693Z,53.40
2018-02-15T08:19:54.830Z,17.20
2018-02-15T08:22:25.306Z,11.87
2018-02-15T08:24:55.770Z,10.07
2018-02-15T08:27:26.162Z,12.83
2018-02-15T08:29:56.619Z,12.00
2018-02-15T08:32:28.037Z,9.80
2018-02-15T08:34:59.227Z,7.93
2018-02-15T08:37:30.451Z,12.20
2018-02-15T08:40:01.011Z,12.27
2018-02-15T08:42:32.223Z,14.60
2018-02-15T08:45:02.754Z,10.73
2018-02-15T08:47:33.214Z,11.13
2018-02-15T08:50:04.694Z,15.27
2018-02-15T08:52:35.062Z,11.17
2018-02-15T08:55:05.452Z,15.97
2018-02-15T08:57:35.952Z,10.23
2018-02-15T09:00:06.396Z,18.13
2018-02-15T09:02:37.062Z,9.13
2018-02-15T09:05:07.546Z,21.13
2018-02-15T09:07:37.962Z,9.63
2018-02-15T09:10:09.216Z,13.27
2018-02-15T09:12:39.705Z,12.93
2018-02-15T09:15:10.103Z,16.93
2018-02-15T09:17:40.556Z,14.70
2018-02-15T09:20:11.450Z,13.10
2018-02-15T09:22:41.906Z,10.37
2018-02-15T09:25:12.364Z,12.60
2018-02-15T09:27:44.111Z,10.73
2018-02-15T09:30:14.568Z,16.60
2018-02-15T09:32:45.003Z,11.90
2018-02-15T09:35:15.470Z,9.50
2018-02-15T09:37:46.514Z,12.63
2018-02-15T09:40:17.003Z,19.40
2018-02-15T09:42:47.418Z,13.40
2018-02-15T09:45:17.813Z,15.07
2018-02-15T09:47:48.284Z,12.10
2018-02-15T09:50:18.884Z,12.43
2018-02-15T09:52:50.081Z,15.83
2018-02-15T09:55:20.525Z,18.80
2018-02-15T09:57:50.973Z,18.53
2018-02-15T10:00:21.517Z,11.10
2018-02-15T10:02:52.797Z,16.57
2018-02-15T10:05:23.298Z,9.17
2018-02-15T10:07:54.884Z,11.07
2018-02-15T10:10:25.346Z,11.03
2018-02-15T10:12:55.954Z,31.63
2018-02-15T10:15:26.493Z,16.37
2018-02-15T10:17:57.542Z,17.17
2018-02-15T10:20:28.383Z,8.50
2018-02-15T10:22:58.834Z,12.37
2018-02-15T10:25:30.284Z,13.93
2018-02-15T10:28:01.615Z,15.40
2018-02-15T10:30:32.030Z,13.20
2018-02-15T10:33:02.561Z,13.23
2018-02-15T10:35:32.974Z,13.70
2018-02-15T10:38:03.621Z,14.50
2018-02-15T10:40:34.063Z,13.50
2018-02-15T10:43:04.533Z,17.17
2018-02-15T10:45:35.006Z,11.87
2018-02-15T10:48:05.473Z,11.20
2018-02-15T10:50:36.349Z,13.20
2018-02-15T10:53:06.768Z,14.50
2018-02-15T10:55:37.682Z,19.17
2018-02-15T10:58:08.076Z,15.87
2018-02-15T11:00:57.065Z,18.20
2018-02-15T11:03:33.626Z,11.07
2018-02-15T11:06:04.989Z,14.53
2018-02-15T11:08:35.845Z,12.90
2018-02-15T11:11:06.236Z,16.00
2018-02-15T11:13:37.497Z,14.83
2018-02-15T11:16:07.959Z,13.80
2018-02-15T11:18:39.465Z,13.50
2018-02-15T11:21:11.053Z,10.70
2018-02-15T11:23:41.544Z,13.00
2018-02-15T11:26:12.010Z,14.57
2018-02-15T11:28:42.510Z,12.73
2018-02-15T11:31:12.946Z,15.63
2018-02-15T11:33:44.190Z,11.20
2018-02-15T11:36:15.565Z,16.60
2018-02-15T11:38:46.278Z,20.07
2018-02-15T11:41:16.771Z,18.50
2018-02-15T11:43:48.115Z,23.50
2018-02-15T11:46:19.414Z,22.90
2018-02-15T11:48:49.898Z,14.90
2018-02-15T11:51:22.705Z,15.73
2018-02-15T11:53:53.188Z,19.33
2018-02-15T11:56:23.828Z,16.20
2018-02-15T11:58:55.117Z,12.47
2018-02-15T12:01:25.661Z,15.77
2018-02-15T12:03:56.146Z,14.97
2018-02-15T12:06:27.895Z,18.53
2018-02-15T12:08:59.154Z,12.30
2018-02-15T12:11:29.672Z,15.60
2018-02-15T12:14:00.835Z,14.87
2018-02-15T12:16:31.245Z,14.87
2018-02-15T12:19:01.806Z,16.67
2018-02-15T12:21:32.608Z,15.53
2018-02-15T12:24:03.886Z,12.47
2018-02-15T12:26:34.610Z,17.35
2018-02-15T12:29:05.107Z,15.90
2018-02-15T12:31:36.263Z,14.10
2018-02-15T12:34:07.469Z,12.93
2018-02-15T12:36:37.913Z,15.47
2018-02-15T12:39:10.251Z,13.43
2018-02-15T12:41:40.727Z,15.43
2018-02-15T12:44:11.975Z,11.90
2018-02-15T12:46:43.226Z,17.87
2018-02-15T12:49:13.768Z,23.20
2018-02-15T12:51:45.322Z,15.57
2018-02-15T12:54:15.778Z,16.57
2018-02-15T12:56:48.600Z,15.90
2018-02-15T12:59:19.863Z,23.50
2018-02-15T13:01:51.107Z,12.50
2018-02-15T13:04:22.496Z,11.63
2018-02-15T13:06:53.898Z,15.87
2018-02-15T13:09:25.637Z,16.97
2018-02-15T13:11:56.034Z,14.13
2018-02-15T13:14:26.496Z,19.40
2018-02-15T13:17:00.245Z,24.30
2018-02-15T13:19:41.229Z,14.67
2018-02-15T13:22:23.460Z,14.43
2018-02-15T13:24:54.677Z,16.17
2018-02-15T13:27:36.311Z,25.33
2018-02-15T13:30:07.130Z,17.23
2018-02-15T13:32:37.550Z,16.70
2018-02-15T13:35:08.687Z,16.20
2018-02-15T13:37:39.115Z,17.17
2018-02-15T13:40:09.730Z,15.27
2018-02-15T13:42:40.167Z,20.07
2018-02-15T13:45:10.565Z,23.63
2018-02-15T13:47:41.977Z,26.40
2018-02-15T13:50:12.459Z,25.30
2018-02-15T13:52:43.063Z,38.10
2018-02-15T13:55:14.818Z,31.43
2018-02-15T13:57:46.067Z,27.03
2018-02-15T14:00:16.605Z,24.03
2018-02-15T14:02:47.229Z,25.37
2018-02-15T14:05:18.132Z,24.53
2018-02-15T14:07:48.665Z,29.40
2018-02-15T14:10:21.043Z,24.40
2018-02-15T14:12:52.227Z,37.07
2018-02-15T14:15:22.754Z,32.23
2018-02-15T14:17:53.265Z,23.60
2018-02-15T14:20:24.536Z,15.80
2018-02-15T14:22:55.399Z,16.03
2018-02-15T14:25:25.993Z,24.50
2018-02-15T14:27:56.507Z,17.47
2018-02-15T14:30:27.158Z,19.93
2018-02-15T14:32:57.606Z,21.13
2018-02-15T14:35:28.452Z,18.90
2018-02-15T14:37:58.946Z,16.93
2018-02-15T14:40:29.739Z,20.77
2018-02-15T14:43:00.248Z,23.77
2018-02-15T14:45:30.727Z,24.87
2018-02-15T14:48:01.252Z,34.40
2018-02-15T14:50:31.802Z,14.13
2018-02-15T14:53:02.729Z,14.93
2018-02-15T14:55:33.921Z,17.77
2018-02-15T14:58:04.695Z,18.20
2018-02-15T15:00:35.312Z,20.07
2018-02-15T15:03:06.618Z,15.67
2018-02-15T15:05:37.333Z,15.77
2018-02-15T15:08:07.861Z,16.60
2018-02-15T15:10:46.569Z,17.07
2018-02-15T15:13:17.396Z,24.30
2018-02-15T15:15:48.671Z,16.27
2018-02-15T15:18:20.038Z,16.50
2018-02-15T15:20:50.521Z,15.60
2018-02-15T15:23:21.690Z,14.23
2018-02-15T15:25:52.513Z,13.90
2018-02-15T15:28:23.010Z,16.17
2018-02-15T15:30:54.242Z,16.50
2018-02-15T15:33:24.818Z,19.47
2018-02-15T15:35:55.331Z,26.80
2018-02-15T15:38:26.593Z,19.57
2018-02-15T15:40:57.361Z,21.07
2018-02-15T15:43:28.240Z,20.87
2018-02-15T15:45:59.515Z,14.53
2018-02-15T15:48:30.010Z,16.30
2018-02-15T15:51:01.355Z,19.00
2018-02-15T15:53:32.995Z,20.10
2018-02-15T15:56:03.886Z,31.50
2018-02-15T15:58:34.622Z,24.17
2018-02-15T16:01:05.028Z,23.33
2018-02-15T16:03:35.846Z,27.43
2018-02-15T16:06:07.152Z,17.70
2018-02-15T16:08:37.721Z,22.73
2018-02-15T16:11:10.263Z,25.80
2018-02-15T16:13:40.830Z,23.97
2018-02-15T16:16:12.393Z,23.83
2018-02-15T16:18:44.328Z,20.30
2018-02-15T16:21:15.601Z,24.70
2018-02-15T16:23:46.967Z,23.10
2018-02-15T16:26:17.429Z,24.03
2018-02-15T16:28:49.473Z,23.83
2018-02-15T16:31:19.866Z,23.63
2018-02-15T16:33:51.344Z,20.17
2018-02-15T16:36:21.849Z,26.50
2018-02-15T16:38:52.434Z,33.00
2018-02-15T16:41:24.185Z,57.40
2018-02-15T16:43:54.802Z,71.77
2018-02-15T16:46:25.289Z,111.33
2018-02-15T16:48:55.807Z,103.63
2018-02-15T16:51:27.296Z,55.00
2018-02-15T16:53:58.326Z,42.53
2018-02-15T16:56:29.031Z,42.23
2018-02-15T16:59:00.686Z,32.53
2018-02-15T17:01:31.902Z,38.50
2018-02-15T17:04:03.021Z,32.80
2018-02-15T17:06:33.634Z,28.57
2018-02-15T17:09:04.114Z,29.93
2018-02-15T17:11:34.942Z,22.10
2018-02-15T17:14:05.486Z,31.10
2018-02-15T17:16:35.930Z,20.50
2018-02-15T17:19:07.065Z,27.30
2018-02-15T17:21:38.408Z,22.40
2018-02-15T17:24:10.684Z,27.70
2018-02-15T17:26:41.994Z,23.53
2018-02-15T17:29:13.151Z,51.10
2018-02-15T17:31:43.553Z,38.43
2018-02-15T17:34:14.033Z,32.53
2018-02-15T17:36:45.234Z,31.57
2018-02-15T17:39:15.610Z,31.90
2018-02-15T17:41:48.122Z,23.67
2018-02-15T17:44:19.039Z,32.30
2018-02-15T17:46:49.478Z,32.47
2018-02-15T17:49:19.929Z,25.30
2018-02-15T17:51:50.386Z,29.60
2018-02-15T17:54:21.469Z,27.50
2018-02-15T17:56:51.919Z,34.27
2018-02-15T17:59:23.662Z,28.63
2018-02-15T18:01:54.173Z,32.17
2018-02-15T18:04:24.536Z,29.97
2018-02-15T18:06:54.929Z,28.23
2018-02-15T18:09:25.386Z,29.03
2018-02-15T18:11:57.082Z,27.10
2018-02-15T18:14:28.249Z,30.90
2018-02-15T18:16:59.832Z,33.03
2018-02-15T18:19:30.219Z,45.97
2018-02-15T18:22:01.428Z,28.53
2018-02-15T18:24:31.883Z,28.67
2018-02-15T18:27:12.237Z,34.10
2018-02-15T18:29:43.852Z,33.63
2018-02-15T18:32:14.281Z,30.23
2018-02-15T18:34:44.720Z,33.50
2018-02-15T18:37:15.147Z,30.70
2018-02-15T18:39:45.608Z,30.60
2018-02-15T18:42:17.821Z,29.30
2018-02-15T18:44:48.569Z,35.53
2018-02-15T18:47:19.339Z,45.07
2018-02-15T18:49:51.426Z,34.90
2018-02-15T18:52:21.833Z,35.37
2018-02-15T18:54:53.067Z,34.37
2018-02-15T18:57:24.266Z,39.17
2018-02-15T18:59:55.150Z,30.63
2018-02-15T19:02:26.630Z,32.90
2018-02-15T19:04:57.027Z,24.07
2018-02-15T19:07:28.191Z,24.37
2018-02-15T19:09:58.582Z,33.47
2018-02-15T19:12:29.431Z,27.47
2018-02-15T19:15:00.683Z,34.73
2018-02-15T19:17:32.288Z,26.93
2018-02-15T19:20:02.670Z,35.43
2018-02-15T19:22:33.837Z,31.03
2018-02-15T19:25:04.274Z,26.87
2018-02-15T19:27:34.741Z,27.83
2018-02-15T19:30:05.437Z,26.30
2018-02-15T19:32:35.866Z,28.07
2018-02-15T19:35:06.377Z,36.37
2018-02-15T19:37:36.794Z,21.97
2018-02-15T19:40:07.268Z,31.30
2018-02-15T19:42:38.243Z,35.13
2018-02-15T19:45:09.437Z,30.90
2018-02-15T19:47:40.342Z,36.50
2018-02-15T19:50:10.782Z,31.27
2018-02-15T19:52:41.259Z,30.50
2018-02-15T19:55:11.609Z,30.57
2018-02-15T19:57:43.198Z,44.20
2018-02-15T20:00:14.711Z,36.53
2018-02-15T20:02:45.950Z,32.03
2018-02-15T20:05:17.102Z,39.00
2018-02-15T20:07:48.312Z,33.73
2018-02-15T20:10:18.706Z,36.60
2018-02-15T20:12:49.109Z,33.00
2018-02-15T20:15:19.822Z,41.30
2018-02-15T20:17:51.230Z,34.87
2018-02-15T20:20:25.548Z,43.83
2018-02-15T20:22:55.955Z,36.73
2018-02-15T20:25:26.408Z,42.23
2018-02-15T20:28:01.919Z,37.20
2018-02-15T20:30:34.569Z,38.97
2018-02-15T20:33:05.902Z,35.53
2018-02-15T20:35:37.037Z,38.17
2018-02-15T20:38:12.313Z,43.10
2018-02-15T20:40:42.694Z,46.97
2018-02-15T20:43:13.562Z,46.17
2018-02-15T20:45:44.726Z,42.90
2018-02-15T20:48:16.461Z,54.10
2018-02-15T20:50:52.753Z,48.43
2018-02-15T20:53:39.365Z,51.27
2018-02-15T20:56:11.033Z,41.47
2018-02-15T20:58:41.438Z,44.43
2018-02-15T21:01:12.162Z,43.73
2018-02-15T21:03:42.609Z,52.87
2018-02-15T21:06:13.003Z,44.57
2018-02-15T21:08:44.776Z,56.23
2018-02-15T21:11:15.398Z,49.10
2018-02-15T21:13:47.902Z,50.27
2018-02-15T21:16:18.318Z,45.87
2018-02-15T21:18:48.719Z,54.43
2018-02-15T21:21:19.845Z,53.93
2018-02-15T21:23:50.282Z,60.00
2018-02-15T21:26:21.769Z,43.80
2018-02-15T21:28:52.225Z,56.70
2018-02-15T21:31:23.747Z,55.67
2018-02-15T21:33:54.157Z,54.67
2018-02-15T21:36:24.563Z,52.60
2018-02-15T21:38:55.757Z,64.07
2018-02-15T21:41:26.138Z,47.90
2018-02-15T21:43:58.441Z,59.13
2018-02-15T21:46:28.915Z,50.73
2018-02-15T21:48:59.334Z,41.87
2018-02-15T21:51:29.711Z,53.20
2018-02-15T21:54:00.097Z,56.27
2018-02-15T21:56:30.473Z,60.53
2018-02-15T21:59:01.133Z,40.83
2018-02-15T22:01:32.545Z,46.87
2018-02-15T22:04:02.953Z,43.83
2018-02-15T22:06:34.058Z,41.73
2018-02-15T22:09:04.565Z,37.87
2018-02-15T22:11:34.969Z,37.10
2018-02-15T22:14:05.395Z,34.73
2018-02-15T22:16:35.857Z,32.80
2018-02-15T22:19:06.614Z,37.57
2018-02-15T22:21:37.015Z,43.20
2018-02-15T22:24:07.438Z,36.53
2018-02-15T22:26:38.645Z,33.60
2018-02-15T22:29:09.056Z,37.77
2018-02-15T22:31:40.870Z,45.97
2018-02-15T22:34:11.246Z,38.90
2018-02-15T22:36:41.703Z,40.07
2018-02-15T22:39:12.074Z,37.47
2018-02-15T22:41:42.511Z,31.93
2018-02-15T22:44:13.979Z,42.43
2018-02-15T22:46:44.461Z,43.33
2018-02-15T22:49:15.160Z,38.57
2018-02-15T22:51:45.602Z,56.37
2018-02-15T22:54:15.974Z,37.80
2018-02-15T22:56:47.186Z,33.07
2018-02-15T22:59:17.642Z,29.97
2018-02-15T23:01:49.177Z,40.43
2018-02-15T23:04:20.035Z,38.03
2018-02-15T23:06:51.187Z,33.80
2018-02-15T23:09:22.385Z,31.07
2018-02-15T23:11:52.819Z,35.50
2018-02-15T23:14:23.281Z,61.63
2018-02-15T23:16:54.433Z,53.73
2018-02-15T23:19:25.133Z,41.90
2018-02-15T23:21:55.564Z,40.17
2018-02-15T23:24:31.385Z,36.07
2018-02-15T23:27:01.869Z,36.60
2018-02-15T23:29:33.042Z,34.43
2018-02-15T23:32:03.565Z,38.47
2018-02-15T23:34:33.910Z,41.67
2018-02-15T23:37:04.458Z,37.00
2018-02-15T23:39:34.862Z,43.13
2018-02-15T23:42:05.228Z,33.90
2018-02-15T23:44:35.639Z,43.90
2018-02-15T23:47:06.057Z,38.43
2018-02-15T23:49:37.745Z,42.10
2018-02-15T23:52:08.931Z,40.53
2018-02-15T23:54:39.319Z,42.57
2018-02-15T23:57:10.457Z,38.40
2018-02-15T23:59:41.646Z,56.93
